Time;durP1;ratioP1;P1;durP2;ratioP2;P2;SDS_P1;SDS_P2;PMS_P1;PMS_P2;Temp;Humidity;BMP_temperature;BMP_pressure;BME280_temperature;BME280_humidity;BME280_pressure;Samples;Min_cycle;Max_cycle;Signal;HPM_P1;HPM_P2
2023/06/13 00:01:35;;;;;;;;;21.40;19.80;;;;;;;;5092136;28;29983;-57
2023/06/13 00:04:02;;;;;;;;;21.60;18.80;;;;;;;;5091895;28;29499;-58
2023/06/13 00:06:29;;;;;;;;;23.60;19.20;;;;;;;;5073636;28;30626;-55
2023/06/13 00:08:54;;;;;;;;;19.60;18.60;;;;;;;;5091774;28;29850;-56
2023/06/13 00:11:19;;;;;;;;;20.50;20.50;;;;;;;;5092183;28;29868;-57
2023/06/13 00:13:45;;;;;;;;;23.00;21.50;;;;;;;;5092351;28;29844;-56
2023/06/13 00:16:12;;;;;;;;;28.50;24.75;;;;;;;;5091929;28;29689;-58
2023/06/13 00:18:37;;;;;;;;;19.60;19.60;;;;;;;;5091514;28;29909;-57
2023/06/13 00:21:03;;;;;;;;;22.25;21.50;;;;;;;;5091863;28;29756;-54
2023/06/13 00:23:28;;;;;;;;;24.20;21.80;;;;;;;;5092255;28;29931;-57
2023/06/13 00:25:54;;;;;;;;;26.50;25.00;;;;;;;;5083320;28;45387;-57
2023/06/13 00:28:19;;;;;;;;;18.75;18.75;;;;;;;;5077203;28;45268;-56
2023/06/13 00:30:45;;;;;;;;;20.75;20.75;;;;;;;;5077654;28;45413;-52
2023/06/13 00:33:17;;;;;;;;;24.50;21.75;;;;;;;;5059011;28;45528;-56
2023/06/13 00:35:45;;;;;;;;;26.20;24.00;;;;;;;;5076892;28;47010;-56
2023/06/13 00:38:12;;;;;;;;;25.80;22.40;;;;;;;;5058621;28;45389;-54
2023/06/13 00:40:37;;;;;;;;;28.40;27.40;;;;;;;;5076958;28;45361;-57
2023/06/13 00:43:02;;;;;;;;;23.25;20.25;;;;;;;;5075787;28;45559;-57
2023/06/13 00:45:28;;;;;;;;;24.00;23.75;;;;;;;;5077235;28;46005;-54
2023/06/13 00:47:55;;;;;;;;;24.00;24.00;;;;;;;;5077110;28;45302;-56
2023/06/13 00:50:21;;;;;;;;;24.80;24.40;;;;;;;;5076717;28;45320;-54
2023/06/13 00:52:47;;;;;;;;;23.20;23.20;;;;;;;;5077166;28;45608;-57
2023/06/13 00:55:14;;;;;;;;;23.25;23.25;;;;;;;;5075375;28;46155;-58
2023/06/13 00:57:39;;;;;;;;;23.60;22.80;;;;;;;;5076864;28;45286;-57
2023/06/13 01:00:05;;;;;;;;;21.25;20.75;;;;;;;;5077027;28;45301;-57
2023/06/13 01:02:30;;;;;;;;;28.50;25.00;;;;;;;;5044326;28;45790;-54
2023/06/13 01:04:57;;;;;;;;;22.50;21.75;;;;;;;;5076632;27;45860;-55
2023/06/13 01:07:29;;;;;;;;;21.80;21.00;;;;;;;;5076923;28;45297;-56
2023/06/13 01:09:55;;;;;;;;;23.40;23.40;;;;;;;;5076779;28;45357;-54
2023/06/13 01:12:22;;;;;;;;;25.00;24.00;;;;;;;;5075923;28;45385;-54
2023/06/13 01:15:08;;;;;;;;;26.80;25.60;;;;;;;;5074924;28;46530;-56
2023/06/13 01:17:37;;;;;;;;;22.20;22.20;;;;;;;;5074836;28;45445;-55
2023/06/13 01:20:05;;;;;;;;;22.00;20.20;;;;;;;;5058517;28;45433;-53
2023/06/13 01:22:52;;;;;;;;;24.40;23.20;;;;;;;;5076674;28;45484;-56
2023/06/13 01:25:20;;;;;;;;;25.20;22.20;;;;;;;;5058193;28;47020;-53
2023/06/13 01:27:49;;;;;;;;;24.40;23.00;;;;;;;;5075934;28;45249;-54
2023/06/13 01:30:14;;;;;;;;;24.00;24.00;;;;;;;;5076472;28;45359;-57
2023/06/13 01:32:39;;;;;;;;;24.75;23.75;;;;;;;;5076330;28;45267;-55
2023/06/13 01:35:05;;;;;;;;;23.25;22.25;;;;;;;;5075046;28;48429;-56
2023/06/13 01:37:30;;;;;;;;;25.75;24.75;;;;;;;;5076237;28;45366;-57
2023/06/13 01:39:55;;;;;;;;;30.50;26.00;;;;;;;;5074920;28;45349;-57
2023/06/13 01:42:20;;;;;;;;;29.00;24.75;;;;;;;;5076557;28;45465;-56
2023/06/13 01:44:46;;;;;;;;;27.00;21.50;;;;;;;;5075143;28;45498;-58
2023/06/13 01:47:30;;;;;;;;;27.00;25.50;;;;;;;;5074857;28;45350;-57
2023/06/13 01:50:00;;;;;;;;;26.20;26.20;;;;;;;;5075710;28;45368;-57
2023/06/13 01:53:02;;;;;;;;;25.80;25.00;;;;;;;;5074811;28;45714;-55
2023/06/13 01:55:32;;;;;;;;;23.40;23.40;;;;;;;;5032487;28;45989;-57
2023/06/13 01:58:02;;;;;;;;;28.00;24.40;;;;;;;;5050344;28;45392;-57
2023/06/13 02:00:27;;;;;;;;;28.20;26.80;;;;;;;;5074237;28;45385;-57
2023/06/13 02:02:52;;;;;;;;;26.50;25.50;;;;;;;;5074418;28;45310;-58
2023/06/13 02:05:18;;;;;;;;;26.50;26.50;;;;;;;;5063553;28;45381;-58
2023/06/13 02:07:44;;;;;;;;;26.50;24.00;;;;;;;;5055756;28;45374;-56
2023/06/13 02:10:09;;;;;;;;;29.50;25.00;;;;;;;;5074261;28;45620;-55
2023/06/13 02:12:35;;;;;;;;;29.25;28.00;;;;;;;;5073147;28;45498;-53
2023/06/13 02:15:02;;;;;;;;;32.00;30.50;;;;;;;;5055175;28;46362;-58
2023/06/13 02:17:27;;;;;;;;;29.60;27.80;;;;;;;;5074065;28;45421;-56
2023/06/13 02:19:53;;;;;;;;;24.25;24.25;;;;;;;;5056988;28;45366;-55
2023/06/13 02:22:18;;;;;;;;;26.50;26.00;;;;;;;;5067664;28;45393;-56
2023/06/13 02:24:43;;;;;;;;;23.25;23.25;;;;;;;;5074958;28;45830;-56
2023/06/13 02:27:09;;;;;;;;;30.00;25.75;;;;;;;;5073406;28;45488;-58
2023/06/13 02:29:38;;;;;;;;;32.25;27.00;;;;;;;;5075353;28;45313;-57
2023/06/13 02:32:04;;;;;;;;;32.20;30.20;;;;;;;;5075237;28;45598;-54
2023/06/13 02:34:29;;;;;;;;;26.00;24.00;;;;;;;;5075002;28;47473;-56
2023/06/13 02:36:54;;;;;;;;;30.25;28.00;;;;;;;;5075109;28;45542;-57
2023/06/13 02:39:20;;;;;;;;;22.00;22.00;;;;;;;;5075011;28;45453;-56
2023/06/13 02:41:45;;;;;;;;;24.00;24.00;;;;;;;;5075137;28;45314;-56
2023/06/13 02:44:10;;;;;;;;;28.50;26.50;;;;;;;;5074625;28;46230;-57
2023/06/13 02:46:35;;;;;;;;;26.75;23.75;;;;;;;;5075175;28;45483;-57
2023/06/13 02:49:02;;;;;;;;;30.25;27.00;;;;;;;;5074064;28;45326;-57
2023/06/13 02:51:27;;;;;;;;;25.20;25.00;;;;;;;;5073678;28;46196;-56
2023/06/13 02:53:52;;;;;;;;;23.00;23.00;;;;;;;;5056479;28;46371;-56
2023/06/13 02:56:17;;;;;;;;;31.50;27.50;;;;;;;;5074740;28;45429;-55
2023/06/13 02:58:43;;;;;;;;;25.25;23.00;;;;;;;;5075312;28;45882;-57
2023/06/13 03:01:08;;;;;;;;;23.25;23.00;;;;;;;;5074739;28;45490;-59
2023/06/13 03:03:34;;;;;;;;;26.75;26.50;;;;;;;;5073094;28;46072;-56
2023/06/13 03:06:01;;;;;;;;;28.25;25.25;;;;;;;;5074636;28;45344;-55
2023/06/13 03:08:27;;;;;;;;;25.80;23.40;;;;;;;;5074561;28;45301;-56
2023/06/13 03:10:52;;;;;;;;;25.75;23.00;;;;;;;;5074965;28;45341;-56
2023/06/13 03:13:18;;;;;;;;;21.75;21.75;;;;;;;;5074450;28;46208;-56
2023/06/13 03:15:45;;;;;;;;;31.50;24.75;;;;;;;;5074437;28;45473;-55
2023/06/13 03:18:10;;;;;;;;;33.00;28.20;;;;;;;;5074617;28;45510;-56
2023/06/13 03:20:37;;;;;;;;;24.50;23.25;;;;;;;;5074454;28;45510;-58
2023/06/13 03:23:02;;;;;;;;;25.80;23.80;;;;;;;;5074409;28;45883;-57
2023/06/13 03:25:27;;;;;;;;;36.50;31.25;;;;;;;;5055629;28;45478;-54
2023/06/13 03:27:52;;;;;;;;;32.50;25.50;;;;;;;;5074811;28;45400;-56
2023/06/13 03:30:18;;;;;;;;;34.00;30.50;;;;;;;;5074578;28;45595;-58
2023/06/13 03:32:43;;;;;;;;;32.75;30.50;;;;;;;;5074255;28;46066;-57
2023/06/13 03:35:09;;;;;;;;;31.50;29.00;;;;;;;;5075345;28;45416;-54
2023/06/13 03:37:34;;;;;;;;;33.50;27.50;;;;;;;;5078136;28;45283;-54
2023/06/13 03:39:59;;;;;;;;;27.75;27.50;;;;;;;;5078167;28;45601;-57
2023/06/13 03:42:24;;;;;;;;;36.00;32.00;;;;;;;;5059104;28;46213;-57
2023/06/13 03:44:50;;;;;;;;;34.00;30.00;;;;;;;;5077564;28;45348;-56
2023/06/13 03:47:15;;;;;;;;;31.50;26.75;;;;;;;;5078019;28;45220;-58
2023/06/13 03:49:41;;;;;;;;;32.75;28.75;;;;;;;;5077979;28;45525;-55
2023/06/13 03:52:06;;;;;;;;;36.75;29.75;;;;;;;;5077442;28;46363;-57
2023/06/13 03:54:32;;;;;;;;;29.75;29.50;;;;;;;;5077525;28;45372;-57
2023/06/13 03:56:57;;;;;;;;;28.50;26.25;;;;;;;;5077857;28;45356;-56
2023/06/13 03:59:22;;;;;;;;;29.75;26.75;;;;;;;;5078142;28;45486;-55
2023/06/13 04:01:47;;;;;;;;;35.75;33.75;;;;;;;;5077014;28;45275;-55
2023/06/13 04:04:13;;;;;;;;;24.25;22.75;;;;;;;;5077541;28;45209;-55
2023/06/13 04:06:38;;;;;;;;;25.50;25.00;;;;;;;;5077390;28;45399;-57
2023/06/13 04:09:05;;;;;;;;;45.75;37.00;;;;;;;;5076608;28;45798;-56
2023/06/13 04:11:30;;;;;;;;;31.40;27.40;;;;;;;;5075863;28;47523;-60
2023/06/13 04:13:56;;;;;;;;;29.50;23.75;;;;;;;;5059008;28;46014;-56
2023/06/13 04:16:21;;;;;;;;;33.25;28.25;;;;;;;;5077752;28;45391;-58
2023/06/13 04:18:46;;;;;;;;;32.00;29.00;;;;;;;;5077146;28;45530;-58
2023/06/13 04:21:12;;;;;;;;;29.50;27.00;;;;;;;;5076739;28;45436;-56
2023/06/13 04:23:37;;;;;;;;;28.25;24.75;;;;;;;;5077405;28;45906;-57
2023/06/13 04:26:03;;;;;;;;;30.00;25.00;;;;;;;;5077213;28;45402;-55
2023/06/13 04:28:29;;;;;;;;;25.50;23.00;;;;;;;;5077609;28;45431;-56
2023/06/13 04:30:56;;;;;;;;;27.80;25.60;;;;;;;;5076440;28;45898;-57
2023/06/13 04:33:23;;;;;;;;;23.80;23.60;;;;;;;;5076922;28;45361;-56
2023/06/13 04:35:49;;;;;;;;;24.00;22.20;;;;;;;;5076599;28;45376;-58
2023/06/13 04:38:16;;;;;;;;;31.20;25.60;;;;;;;;5077293;28;45209;-57
2023/06/13 04:40:41;;;;;;;;;24.20;24.20;;;;;;;;5076556;28;45410;-57
2023/06/13 04:43:09;;;;;;;;;22.75;22.75;;;;;;;;5061075;27;45650;-58
2023/06/13 04:45:36;;;;;;;;;25.80;24.00;;;;;;;;5060092;28;45317;-57
2023/06/13 04:48:03;;;;;;;;;14.00;14.00;;;;;;;;5076168;28;45305;-57
2023/06/13 04:50:28;;;;;;;;;22.40;21.20;;;;;;;;5057467;28;47727;-59
2023/06/13 04:52:57;;;;;;;;;28.25;23.50;;;;;;;;5075833;28;45289;-58
2023/06/13 04:55:22;;;;;;;;;24.00;20.60;;;;;;;;5075951;28;45493;-56
2023/06/13 04:57:47;;;;;;;;;25.00;25.00;;;;;;;;5075643;28;45369;-54
2023/06/13 05:00:14;;;;;;;;;18.50;17.75;;;;;;;;5075534;28;45365;-59
2023/06/13 05:02:41;;;;;;;;;24.20;22.40;;;;;;;;5075241;28;45420;-58
2023/06/13 05:05:07;;;;;;;;;21.60;20.80;;;;;;;;5075030;28;45357;-57
2023/06/13 05:07:32;;;;;;;;;25.75;23.50;;;;;;;;5075724;28;45347;-59
2023/06/13 05:09:57;;;;;;;;;24.50;21.75;;;;;;;;5056736;28;47745;-58
2023/06/13 05:12:23;;;;;;;;;34.25;26.50;;;;;;;;5075140;28;45368;-57
2023/06/13 05:14:48;;;;;;;;;23.25;23.25;;;;;;;;5073834;28;45341;-56
2023/06/13 05:17:14;;;;;;;;;29.75;27.75;;;;;;;;5075428;28;45473;-54
2023/06/13 05:19:40;;;;;;;;;23.25;23.25;;;;;;;;5075344;28;46159;-59
2023/06/13 05:22:05;;;;;;;;;26.25;25.00;;;;;;;;5073577;28;45610;-58
2023/06/13 05:24:31;;;;;;;;;31.50;27.25;;;;;;;;5075139;28;45384;-58
2023/06/13 05:26:56;;;;;;;;;29.50;26.50;;;;;;;;5075254;28;45453;-57
2023/06/13 05:29:22;;;;;;;;;25.75;24.75;;;;;;;;5074737;28;45534;-59
2023/06/13 05:31:47;;;;;;;;;30.25;25.75;;;;;;;;5073258;28;45317;-59
2023/06/13 05:34:12;;;;;;;;;23.00;22.50;;;;;;;;5074963;28;45377;-59
2023/06/13 05:36:38;;;;;;;;;29.75;25.50;;;;;;;;5075170;28;45284;-56
2023/06/13 05:39:03;;;;;;;;;30.00;29.00;;;;;;;;5074866;28;46041;-54
2023/06/13 05:41:28;;;;;;;;;28.20;24.60;;;;;;;;5027181;28;1340072;-55
2023/06/13 05:43:53;;;;;;;;;30.75;27.00;;;;;;;;5076369;28;45383;-59
2023/06/13 05:46:19;;;;;;;;;31.25;29.00;;;;;;;;5075898;28;45384;-58
2023/06/13 05:48:44;;;;;;;;;34.75;30.75;;;;;;;;5044713;28;45711;-59
2023/06/13 05:51:10;;;;;;;;;32.75;29.50;;;;;;;;5054331;28;45459;-58
2023/06/13 05:53:35;;;;;;;;;29.50;27.50;;;;;;;;5055780;28;45204;-58
2023/06/13 05:56:00;;;;;;;;;32.50;28.50;;;;;;;;5056079;28;45229;-59
2023/06/13 05:58:26;;;;;;;;;26.00;25.50;;;;;;;;5054475;28;45726;-58
2023/06/13 06:00:52;;;;;;;;;30.25;29.75;;;;;;;;5056073;28;45724;-57
2023/06/13 06:03:17;;;;;;;;;31.60;29.00;;;;;;;;5055790;28;45231;-58
2023/06/13 06:05:42;;;;;;;;;30.50;27.00;;;;;;;;5055256;28;45520;-60
2023/06/13 06:08:08;;;;;;;;;33.00;30.00;;;;;;;;5074836;28;46278;-58
2023/06/13 06:10:33;;;;;;;;;30.25;28.75;;;;;;;;5075134;28;45253;-58
2023/06/13 06:12:58;;;;;;;;;28.00;26.75;;;;;;;;5075679;28;45389;-59
2023/06/13 06:15:23;;;;;;;;;32.00;30.00;;;;;;;;5075742;28;45357;-57
2023/06/13 06:17:50;;;;;;;;;29.50;24.75;;;;;;;;5075222;28;46261;-59
2023/06/13 06:20:16;;;;;;;;;32.20;30.80;;;;;;;;5075277;28;45882;-60
2023/06/13 06:22:41;;;;;;;;;25.00;25.00;;;;;;;;5075315;28;45396;-55
2023/06/13 06:25:08;;;;;;;;;34.75;29.25;;;;;;;;5075769;28;45290;-55
2023/06/13 06:27:33;;;;;;;;;22.40;22.00;;;;;;;;5075081;28;45675;-57
2023/06/13 06:29:59;;;;;;;;;30.00;25.00;;;;;;;;5075410;28;45450;-57
2023/06/13 06:32:24;;;;;;;;;23.00;21.00;;;;;;;;5074980;28;45329;-58
2023/06/13 06:34:49;;;;;;;;;28.50;26.50;;;;;;;;5074954;28;45288;-58
2023/06/13 06:37:15;;;;;;;;;21.50;21.50;;;;;;;;5075048;28;47110;-55
2023/06/13 06:39:41;;;;;;;;;20.75;20.25;;;;;;;;5056769;28;46015;-59
2023/06/13 06:42:06;;;;;;;;;25.00;23.00;;;;;;;;5074793;28;45505;-56
2023/06/13 06:44:31;;;;;;;;;20.25;18.25;;;;;;;;5076052;28;45557;-53
2023/06/13 06:46:56;;;;;;;;;21.75;19.00;;;;;;;;5074955;28;46156;-55
2023/06/13 06:49:22;;;;;;;;;26.25;20.75;;;;;;;;5062804;28;45328;-52
2023/06/13 06:51:47;;;;;;;;;21.50;20.25;;;;;;;;5074874;28;45336;-58
2023/06/13 06:54:12;;;;;;;;;22.50;20.75;;;;;;;;5075584;28;45522;-58
2023/06/13 06:56:38;;;;;;;;;20.25;18.00;;;;;;;;5075207;28;45889;-58
2023/06/13 06:59:03;;;;;;;;;23.00;20.25;;;;;;;;5074674;28;45269;-57
2023/06/13 07:01:28;;;;;;;;;23.00;21.25;;;;;;;;5075077;28;45321;-58
2023/06/13 07:03:54;;;;;;;;;20.25;19.50;;;;;;;;5057442;28;45154;-57
2023/06/13 07:06:19;;;;;;;;;22.50;20.25;;;;;;;;5061174;28;46062;-58
2023/06/13 07:08:45;;;;;;;;;19.75;17.50;;;;;;;;5074979;28;45200;-55
2023/06/13 07:11:10;;;;;;;;;25.00;24.50;;;;;;;;5074699;28;45217;-56
2023/06/13 07:13:35;;;;;;;;;25.25;24.50;;;;;;;;5075243;28;45552;-59
2023/06/13 07:16:01;;;;;;;;;23.75;20.50;;;;;;;;5074761;28;46541;-57
2023/06/13 07:18:26;;;;;;;;;20.25;17.25;;;;;;;;5074535;28;45483;-59
2023/06/13 07:20:51;;;;;;;;;19.75;17.50;;;;;;;;5073732;28;45404;-59
2023/06/13 07:23:17;;;;;;;;;21.50;20.00;;;;;;;;5075103;28;45353;-58
2023/06/13 07:25:42;;;;;;;;;17.75;16.75;;;;;;;;5074864;28;46454;-59
2023/06/13 07:28:08;;;;;;;;;19.50;18.50;;;;;;;;5074384;28;45387;-59
2023/06/13 07:30:33;;;;;;;;;22.75;22.75;;;;;;;;5074925;28;45361;-56
2023/06/13 07:32:58;;;;;;;;;25.25;22.00;;;;;;;;5074688;28;45424;-56
2023/06/13 07:35:24;;;;;;;;;17.50;16.00;;;;;;;;5074216;28;46093;-57
2023/06/13 07:37:50;;;;;;;;;17.75;17.75;;;;;;;;5074129;28;45420;-57
2023/06/13 07:40:16;;;;;;;;;18.50;17.50;;;;;;;;5026020;27;45900;-57
2023/06/13 07:42:41;;;;;;;;;22.80;19.80;;;;;;;;5067781;28;45648;-58
2023/06/13 07:45:07;;;;;;;;;21.75;18.75;;;;;;;;5074027;28;45908;-57
2023/06/13 07:47:32;;;;;;;;;20.00;17.75;;;;;;;;5074522;28;45348;-57
2023/06/13 07:49:57;;;;;;;;;20.25;20.25;;;;;;;;5074944;28;45450;-58
2023/06/13 07:52:23;;;;;;;;;19.00;19.00;;;;;;;;5074148;28;45299;-58
2023/06/13 07:54:48;;;;;;;;;16.75;16.50;;;;;;;;5074298;28;46679;-57
2023/06/13 07:57:13;;;;;;;;;20.50;20.00;;;;;;;;5074287;28;45370;-55
2023/06/13 07:59:39;;;;;;;;;24.75;21.00;;;;;;;;5074309;28;45250;-60
2023/06/13 08:02:04;;;;;;;;;21.25;20.25;;;;;;;;5074436;28;45347;-56
2023/06/13 08:04:29;;;;;;;;;19.75;18.00;;;;;;;;5066838;28;47017;-58
2023/06/13 08:06:55;;;;;;;;;25.00;18.75;;;;;;;;5042258;28;46726;-59
2023/06/13 08:09:22;;;;;;;;;21.00;19.50;;;;;;;;5057283;28;45522;-60
2023/06/13 08:11:48;;;;;;;;;17.80;17.40;;;;;;;;5070732;28;45845;-59
2023/06/13 08:14:13;;;;;;;;;22.75;20.00;;;;;;;;5071760;28;45969;-57
2023/06/13 08:16:38;;;;;;;;;20.25;18.25;;;;;;;;5072271;28;45444;-55
2023/06/13 08:19:04;;;;;;;;;23.75;18.50;;;;;;;;5071255;28;46786;-60
2023/06/13 08:21:29;;;;;;;;;18.25;16.75;;;;;;;;5071078;28;45416;-58
2023/06/13 08:23:55;;;;;;;;;16.00;15.50;;;;;;;;5079068;28;46151;-54
2023/06/13 08:26:20;;;;;;;;;20.25;19.75;;;;;;;;5056608;28;45378;-56
2023/06/13 08:28:47;;;;;;;;;17.75;17.75;;;;;;;;5074626;28;45562;-56
2023/06/13 08:31:13;;;;;;;;;20.60;18.80;;;;;;;;5074546;28;45574;-55
2023/06/13 08:33:39;;;;;;;;;19.50;18.50;;;;;;;;5075736;28;46131;-57
2023/06/13 08:36:04;;;;;;;;;21.00;20.00;;;;;;;;5057726;28;45287;-56
2023/06/13 08:38:30;;;;;;;;;18.00;18.00;;;;;;;;5028202;27;46510;-57
2023/06/13 08:40:55;;;;;;;;;19.25;17.00;;;;;;;;5064010;27;45447;-55
2023/06/13 08:43:20;;;;;;;;;19.50;18.25;;;;;;;;5064718;28;46028;-55
2023/06/13 08:45:46;;;;;;;;;19.75;17.00;;;;;;;;5056137;28;45522;-56
2023/06/13 08:48:11;;;;;;;;;21.00;20.50;;;;;;;;5067946;28;45928;-57
2023/06/13 08:50:37;;;;;;;;;16.75;16.00;;;;;;;;5060594;28;45518;-55
2023/06/13 08:53:02;;;;;;;;;19.00;17.75;;;;;;;;5054665;28;48321;-58
2023/06/13 08:55:27;;;;;;;;;16.25;15.75;;;;;;;;5055005;28;45505;-57
2023/06/13 08:57:53;;;;;;;;;15.75;15.75;;;;;;;;5056340;28;45820;-58
2023/06/13 09:00:18;;;;;;;;;21.50;19.75;;;;;;;;5069319;28;45478;-59
2023/06/13 09:02:45;;;;;;;;;17.50;16.50;;;;;;;;5051361;28;48510;-57
2023/06/13 09:05:13;;;;;;;;;14.80;14.80;;;;;;;;5052178;28;45382;-54
2023/06/13 09:07:38;;;;;;;;;18.60;17.20;;;;;;;;5048552;27;45558;-54
2023/06/13 09:10:04;;;;;;;;;16.75;14.50;;;;;;;;5080467;27;45376;-58
2023/06/13 09:12:30;;;;;;;;;20.20;18.00;;;;;;;;5089484;27;46325;-59
2023/06/13 09:14:55;;;;;;;;;16.25;13.75;;;;;;;;5074746;28;45471;-55
2023/06/13 09:17:23;;;;;;;;;19.50;19.50;;;;;;;;5072994;28;45562;-56
2023/06/13 09:19:49;;;;;;;;;19.60;19.20;;;;;;;;5057309;28;45577;-58
2023/06/13 09:22:15;;;;;;;;;18.00;18.00;;;;;;;;5073922;27;45686;-60
2023/06/13 09:24:41;;;;;;;;;23.60;21.20;;;;;;;;5059951;27;45473;-56
2023/06/13 09:27:06;;;;;;;;;18.00;17.50;;;;;;;;5050066;28;45863;-58
2023/06/13 09:29:32;;;;;;;;;19.50;19.50;;;;;;;;5074643;27;45356;-58
2023/06/13 09:31:57;;;;;;;;;16.50;16.50;;;;;;;;5052795;28;47886;-53
2023/06/13 09:34:23;;;;;;;;;14.50;14.00;;;;;;;;5071557;28;45794;-60
2023/06/13 09:36:48;;;;;;;;;16.25;14.75;;;;;;;;5072845;28;45602;-51
2023/06/13 09:39:13;;;;;;;;;14.25;14.25;;;;;;;;5065368;28;45488;-56
2023/06/13 09:41:38;;;;;;;;;16.75;16.75;;;;;;;;5072927;28;45974;-56
2023/06/13 09:44:04;;;;;;;;;19.00;17.75;;;;;;;;5066440;27;45828;-57
2023/06/13 09:46:32;;;;;;;;;18.50;17.00;;;;;;;;5065508;27;45727;-56
2023/06/13 09:48:57;;;;;;;;;21.00;17.60;;;;;;;;5071864;27;45533;-60
2023/06/13 09:51:23;;;;;;;;;21.25;18.25;;;;;;;;5073140;28;45883;-60
2023/06/13 09:53:49;;;;;;;;;18.00;14.25;;;;;;;;5071816;28;45477;-57
2023/06/13 09:56:15;;;;;;;;;21.20;20.80;;;;;;;;5050364;28;46454;-57
2023/06/13 09:58:40;;;;;;;;;19.00;15.80;;;;;;;;5042457;28;45643;-53
2023/06/13 10:01:10;;;;;;;;;15.25;13.75;;;;;;;;5071594;28;46606;-51
2023/06/13 10:03:35;;;;;;;;;16.80;15.60;;;;;;;;5073198;28;45423;-57
2023/06/13 10:06:01;;;;;;;;;18.25;18.25;;;;;;;;5074393;28;45380;-56
2023/06/13 10:08:26;;;;;;;;;18.50;17.00;;;;;;;;5067155;28;45697;-51
2023/06/13 10:10:52;;;;;;;;;15.25;15.25;;;;;;;;5068926;28;29984;-53
2023/06/13 10:13:18;;;;;;;;;15.80;15.80;;;;;;;;5028530;28;45453;-56
2023/06/13 10:15:53;;;;;;;;;18.60;16.80;;;;;;;;5071285;28;45495;-54
2023/06/13 10:18:22;;;;;;;;;19.20;17.20;;;;;;;;5074422;28;45768;-55
2023/06/13 10:20:48;;;;;;;;;21.00;16.40;;;;;;;;5063156;28;46611;-56
2023/06/13 10:23:13;;;;;;;;;16.25;14.25;;;;;;;;5087836;28;43930;-53
2023/06/13 10:25:39;;;;;;;;;20.25;18.75;;;;;;;;5070759;28;29896;-54
2023/06/13 10:28:14;;;;;;;;;16.50;14.50;;;;;;;;5088577;28;29554;-57
2023/06/13 10:30:40;;;;;;;;;19.40;19.40;;;;;;;;5070700;28;30109;-54
2023/06/13 10:33:17;;;;;;;;;20.25;19.50;;;;;;;;5074098;28;29290;-53
2023/06/13 10:35:49;;;;;;;;;17.20;16.40;;;;;;;;5070465;28;29981;-53
2023/06/13 10:38:33;;;;;;;;;19.60;17.00;;;;;;;;5078864;28;29843;-51
2023/06/13 10:41:10;;;;;;;;;18.00;16.60;;;;;;;;5088297;28;29374;-54
2023/06/13 10:44:00;;;;;;;;;17.80;16.20;;;;;;;;5062428;28;29883;-53
2023/06/13 10:46:25;;;;;;;;;18.40;18.20;;;;;;;;5065935;28;29701;-56
2023/06/13 10:48:51;;;;;;;;;20.75;17.75;;;;;;;;5085360;28;30019;-55
2023/06/13 10:51:20;;;;;;;;;20.20;18.80;;;;;;;;5086813;28;30062;-54
2023/06/13 10:53:45;;;;;;;;;20.00;18.80;;;;;;;;5068176;28;29776;-53
2023/06/13 10:56:10;;;;;;;;;17.25;17.25;;;;;;;;5086601;28;29217;-53
2023/06/13 10:58:36;;;;;;;;;17.50;17.50;;;;;;;;5088622;28;29864;-52
2023/06/13 11:01:22;;;;;;;;;17.50;15.50;;;;;;;;5087967;28;30494;-58
2023/06/13 11:03:47;;;;;;;;;17.00;17.00;;;;;;;;5073641;28;29948;-56
2023/06/13 11:06:12;;;;;;;;;17.75;16.25;;;;;;;;5086626;28;44697;-56
2023/06/13 11:08:37;;;;;;;;;17.00;17.00;;;;;;;;5068926;28;29794;-53
2023/06/13 11:11:03;;;;;;;;;15.50;15.50;;;;;;;;5085971;28;30044;-57
2023/06/13 11:13:32;;;;;;;;;18.25;14.50;;;;;;;;5080625;28;29636;-55
2023/06/13 11:15:57;;;;;;;;;18.80;16.20;;;;;;;;5067667;28;30105;-56
2023/06/13 11:18:23;;;;;;;;;20.50;17.00;;;;;;;;5061644;27;30028;-55
2023/06/13 11:20:51;;;;;;;;;21.75;16.50;;;;;;;;5073773;28;29814;-55
2023/06/13 11:23:35;;;;;;;;;18.40;18.40;;;;;;;;5087903;28;29199;-58
2023/06/13 11:26:00;;;;;;;;;17.00;17.00;;;;;;;;5069332;28;29526;-59
2023/06/13 11:28:25;;;;;;;;;17.75;16.00;;;;;;;;5087729;28;29744;-55
2023/06/13 11:30:51;;;;;;;;;17.50;17.50;;;;;;;;5086016;28;29630;-59
2023/06/13 11:33:16;;;;;;;;;15.25;14.25;;;;;;;;5085034;28;29735;-57
2023/06/13 11:35:49;;;;;;;;;14.75;14.75;;;;;;;;5069294;28;29923;-59
2023/06/13 11:38:18;;;;;;;;;17.80;16.40;;;;;;;;5086017;28;29885;-55
2023/06/13 11:40:43;;;;;;;;;14.80;14.20;;;;;;;;5083345;28;34954;-61
2023/06/13 11:43:09;;;;;;;;;13.50;13.50;;;;;;;;5078680;28;30142;-57
2023/06/13 11:45:35;;;;;;;;;12.50;12.50;;;;;;;;5052633;28;31443;-56
2023/06/13 11:48:01;;;;;;;;;14.20;13.20;;;;;;;;5077314;28;29641;-61
2023/06/13 11:50:26;;;;;;;;;13.00;12.75;;;;;;;;5058994;28;30240;-60
2023/06/13 11:53:04;;;;;;;;;12.25;11.25;;;;;;;;5063158;28;30477;-56
2023/06/13 11:55:29;;;;;;;;;14.80;12.80;;;;;;;;5067915;28;29303;-56
2023/06/13 11:57:56;;;;;;;;;15.50;15.25;;;;;;;;5088135;28;29636;-53
2023/06/13 12:00:25;;;;;;;;;15.00;14.40;;;;;;;;5089695;28;30074;-57
2023/06/13 12:02:51;;;;;;;;;12.80;12.80;;;;;;;;5089318;28;30155;-51
2023/06/13 12:05:16;;;;;;;;;13.00;11.50;;;;;;;;5090886;28;29580;-57
2023/06/13 12:07:43;;;;;;;;;12.50;12.50;;;;;;;;5091009;28;29615;-57
2023/06/13 12:10:09;;;;;;;;;13.60;12.80;;;;;;;;5072499;28;29560;-54
2023/06/13 12:12:34;;;;;;;;;12.00;10.75;;;;;;;;5090837;28;29605;-56
2023/06/13 12:15:01;;;;;;;;;13.25;13.25;;;;;;;;5089389;28;29371;-60
2023/06/13 12:17:26;;;;;;;;;14.00;13.40;;;;;;;;5090991;28;29555;-55
2023/06/13 12:20:06;;;;;;;;;14.75;14.75;;;;;;;;5072095;28;31788;-55
2023/06/13 12:22:31;;;;;;;;;14.40;14.40;;;;;;;;5041790;27;30176;-57
2023/06/13 12:24:57;;;;;;;;;15.00;13.50;;;;;;;;5079998;27;29853;-54
2023/06/13 12:27:22;;;;;;;;;14.00;14.00;;;;;;;;5054340;28;30239;-53
2023/06/13 12:29:47;;;;;;;;;17.50;14.25;;;;;;;;5086861;28;30180;-50
2023/06/13 12:32:13;;;;;;;;;16.25;15.00;;;;;;;;5086354;27;30116;-59
2023/06/13 12:34:41;;;;;;;;;18.50;17.75;;;;;;;;5070963;28;30364;-57
2023/06/13 12:37:09;;;;;;;;;15.40;14.80;;;;;;;;5070150;28;29628;-58
2023/06/13 12:39:35;;;;;;;;;14.40;12.00;;;;;;;;5058447;28;29979;-55
2023/06/13 12:42:02;;;;;;;;;13.25;12.25;;;;;;;;5089262;28;29283;-56
2023/06/13 12:44:28;;;;;;;;;13.60;13.60;;;;;;;;5084955;28;29262;-54
2023/06/13 12:46:54;;;;;;;;;13.00;10.40;;;;;;;;5082701;28;30164;-56
2023/06/13 12:49:20;;;;;;;;;15.00;15.00;;;;;;;;5079123;27;31064;-56
2023/06/13 12:51:52;;;;;;;;;14.80;14.80;;;;;;;;5088370;27;29517;-58
2023/06/13 12:54:18;;;;;;;;;19.00;17.80;;;;;;;;5087518;28;29571;-57
2023/06/13 12:56:55;;;;;;;;;14.20;13.20;;;;;;;;5090360;28;29981;-52
2023/06/13 12:59:30;;;;;;;;;15.80;15.80;;;;;;;;5088466;28;29710;-59
2023/06/13 13:01:56;;;;;;;;;15.60;14.80;;;;;;;;5088538;28;29451;-56
2023/06/13 13:04:31;;;;;;;;;14.50;14.00;;;;;;;;5055922;27;28888;-56
2023/06/13 13:06:56;;;;;;;;;14.80;13.60;;;;;;;;5055896;27;45404;-55
2023/06/13 13:09:23;;;;;;;;;12.50;12.50;;;;;;;;5053376;27;45763;-54
2023/06/13 13:11:48;;;;;;;;;14.00;14.00;;;;;;;;5055288;28;45827;-55
2023/06/13 13:14:13;;;;;;;;;14.00;14.00;;;;;;;;5056037;28;45927;-57
2023/06/13 13:16:39;;;;;;;;;13.00;11.75;;;;;;;;5056001;27;45505;-60
2023/06/13 13:19:04;;;;;;;;;14.75;13.75;;;;;;;;5048616;28;46779;-56
2023/06/13 13:21:29;;;;;;;;;16.75;14.75;;;;;;;;5068568;27;29461;-55
2023/06/13 13:23:55;;;;;;;;;12.75;12.50;;;;;;;;5048102;28;45449;-58
2023/06/13 13:26:20;;;;;;;;;13.00;13.00;;;;;;;;5037828;28;45427;-57
2023/06/13 13:28:46;;;;;;;;;16.00;15.75;;;;;;;;5055613;27;47345;-57
2023/06/13 13:31:11;;;;;;;;;12.75;12.75;;;;;;;;5055433;27;45306;-54
2023/06/13 13:33:36;;;;;;;;;13.25;13.00;;;;;;;;5055340;27;45423;-55
2023/06/13 13:36:02;;;;;;;;;16.50;15.50;;;;;;;;5055937;28;45842;-53
2023/06/13 13:38:27;;;;;;;;;13.00;13.00;;;;;;;;5055317;28;45390;-55
2023/06/13 13:40:53;;;;;;;;;14.50;14.50;;;;;;;;5055631;27;45428;-57
2023/06/13 13:43:19;;;;;;;;;14.80;13.60;;;;;;;;5055104;28;45370;-56
2023/06/13 13:45:44;;;;;;;;;14.75;13.75;;;;;;;;5055106;27;45480;-55
2023/06/13 13:48:12;;;;;;;;;14.25;14.00;;;;;;;;5055192;27;46060;-56
2023/06/13 13:50:37;;;;;;;;;16.60;15.60;;;;;;;;5054963;28;45393;-54
2023/06/13 13:53:02;;;;;;;;;19.00;18.00;;;;;;;;5054730;27;45393;-55
2023/06/13 13:55:28;;;;;;;;;18.00;17.00;;;;;;;;5055430;27;45495;-53
2023/06/13 13:57:53;;;;;;;;;13.75;13.75;;;;;;;;5055307;27;46639;-59
2023/06/13 14:00:19;;;;;;;;;20.75;18.75;;;;;;;;5054959;27;45504;-60
2023/06/13 14:02:44;;;;;;;;;17.75;17.75;;;;;;;;5036867;28;45512;-58
2023/06/13 14:05:09;;;;;;;;;15.00;13.50;;;;;;;;5055427;27;45418;-52
2023/06/13 14:07:34;;;;;;;;;15.75;15.00;;;;;;;;5054791;27;46527;-57
2023/06/13 14:10:00;;;;;;;;;16.00;16.00;;;;;;;;5063312;27;45921;-56
2023/06/13 14:12:25;;;;;;;;;15.00;15.00;;;;;;;;5055235;27;45458;-60